Fesco Vladimir — 5BSL2 — position and weather

sailwx.info

Track history (hours):
 
Tides and Currents Weather Stations Pressure Air Temp Water Temp Dewpoint Dewpoint Depression Visibility Wind Speed Wind Dir Waves Ship Positions

Fesco Vladimir

Last reported at 2015-Feb-25 15:33 UTC. Time now 2015-Mar-07 00:12 UTC.
Position N 40°24' W 071°19'.
Warning: this ship's position is 9 days out of date.

Length 184 m; draft 9.5 m.

Type: Cargo ship. MMSI: 209777000.

Date/timePositionNaut miles runAvg speedWind from/ knotsBaromVisibWave heightAir tempDewpointWater temp
2015-Feb-25 15:33N 40°24' W 071°19'1414.5
2015-Feb-25 14:33N 40°23' W 071°38'1414.5
2015-Feb-25 13:33N 40°23' W 071°57'1414.5
2015-Feb-25 12:33N 40°22' W 072°15'1514.6
2015-Feb-25 11:33N 40°22' W 072°35'1514.8
2015-Feb-25 10:33N 40°22' W 072°54'1514.9
2015-Feb-25 09:33N 40°22' W 073°14'1515.1
2015-Feb-25 08:33N 40°25' W 073°33'1413.8
2015-Feb-25 07:33N 40°27' W 073°51'1212.0
2015-Feb-25 06:32N 40°36' W 074°03'6 6.0
2015-Feb-25 05:33N 40°39' W 074°09'2 1.6
2015-Feb-25 04:23N 40°41' W 074°09'0 0.0
2015-Feb-25 03:29N 40°41' W 074°09'0 0.0
2015-Feb-25 02:29N 40°41' W 074°09'0 0.0
2015-Feb-25 01:29N 40°41' W 074°09'0 0.0
2015-Feb-25 00:29N 40°41' W 074°09'0 0.0
2015-Feb-24 23:29N 40°41' W 074°09'0 0.0
2015-Feb-24 22:29N 40°41' W 074°09'0 0.0
2015-Feb-24 21:23N 40°41' W 074°09'0 0.0
2015-Feb-24 20:29N 40°41' W 074°09'0 0.0
2015-Feb-24 19:29N 40°41' W 074°09'0 0.0
2015-Feb-24 18:05N 40°41' W 074°09'0 0.0
2015-Feb-24 17:29N 40°41' W 074°09'1 1.4
2015-Feb-24 16:33N 40°40' W 074°08'5 5.3
2015-Feb-24 15:33N 40°37' W 074°03'1212.1
2015-Feb-24 14:33N 40°28' W 073°52'1211.5
2015-Feb-24 13:33N 40°17' W 073°46'3416.9
2015-Feb-24 11:31N 39°43' W 073°42'  
2015-Feb-22 03:14N 31°58' W 080°31'812.3
2015-Feb-22 02:34N 31°57' W 080°41'1111.4
2015-Feb-22 01:34N 32°02' W 080°53'9 8.7
2015-Feb-22 00:34N 32°05' W 081°03'5 5.2
2015-Feb-21 23:32N 32°07' W 081°08'0 0.0
2015-Feb-21 22:32N 32°07' W 081°08'0 0.0
2015-Feb-21 21:32N 32°07' W 081°08'0 0.0
2015-Feb-21 20:32N 32°07' W 081°08'0 0.0
2015-Feb-21 19:32N 32°07' W 081°08'0 0.0
2015-Feb-21 18:32N 32°07' W 081°08'0 0.0
2015-Feb-21 17:32N 32°07' W 081°08'0 0.0
2015-Feb-21 16:32N 32°07' W 081°08'0 0.0
2015-Feb-21 15:32N 32°07' W 081°08'0 0.0
2015-Feb-21 14:32N 32°07' W 081°08'0 0.0
2015-Feb-21 13:32N 32°07' W 081°08'0 0.0
2015-Feb-21 12:32N 32°07' W 081°08'0 0.0
2015-Feb-21 11:32N 32°07' W 081°08'0 0.2
2015-Feb-21 10:33N 32°08' W 081°08'3 3.5
2015-Feb-21 09:33N 32°05' W 081°05'8 7.6
2015-Feb-21 08:33N 32°04' W 080°57'1110.6
2015-Feb-21 07:34N 31°59' W 080°45'10 9.8
2015-Feb-21 06:33N 31°57' W 080°34'7 7.2
2015-Feb-21 05:33N 31°56' W 080°26'7 6.5
2015-Feb-21 04:30N 31°58' W 080°18'8 7.4
2015-Feb-21 03:23N 32°02' W 080°10'24010.8
2015-Feb-20 05:14N 34°20' W 076°15'  
2015-Feb-17 17:33N 39°37' W 073°52'1515.3
2015-Feb-17 16:33N 39°53' W 073°51'3414.5
2015-Feb-17 14:11N 40°27' W 073°51'711.0
2015-Feb-17 13:34N 40°31' W 073°59'1010.2
2015-Feb-17 12:33N 40°39' W 074°07'3 2.9
2015-Feb-17 11:32N 40°41' W 074°09'0 0.0
2015-Feb-17 10:32N 40°41' W 074°09'0 0.0
2015-Feb-17 09:32N 40°41' W 074°09'0 0.0
2015-Feb-17 08:32N 40°41' W 074°09'0 0.0
2015-Feb-17 07:32N 40°41' W 074°09'0 0.0
2015-Feb-17 06:32N 40°41' W 074°09'0 0.0
2015-Feb-17 05:26N 40°41' W 074°09'0 0.0
2015-Feb-17 04:32N 40°41' W 074°09'0 0.0
2015-Feb-17 03:32N 40°41' W 074°09'0 0.0
2015-Feb-17 02:32N 40°41' W 074°09'0 0.0
2015-Feb-17 01:26N 40°41' W 074°09'0 0.0
2015-Feb-17 00:32N 40°41' W 074°09'0 0.0
2015-Feb-16 23:14N 40°41' W 074°09'0 0.0
2015-Feb-16 22:26N 40°41' W 074°09'0 0.0
2015-Feb-16 21:32N 40°41' W 074°09'0 0.0
2015-Feb-16 20:32N 40°41' W 074°09'0 0.0
2015-Feb-16 19:32N 40°41' W 074°09'0 0.0
2015-Feb-16 18:32N 40°41' W 074°09'0 0.0
2015-Feb-16 17:32N 40°41' W 074°09'0 0.0
2015-Feb-16 16:32N 40°41' W 074°09'0 0.0
2015-Feb-16 15:32N 40°41' W 074°09'0 0.0
2015-Feb-16 14:32N 40°41' W 074°09'0 0.0
2015-Feb-16 13:32N 40°41' W 074°09'0 0.0
2015-Feb-16 12:33N 40°41' W 074°09'3 2.9
2015-Feb-16 11:33N 40°39' W 074°08'6 6.3
2015-Feb-16 10:33N 40°34' W 074°02'1110.6
2015-Feb-16 09:33N 40°28' W 073°50'8 7.6
2015-Feb-16 08:32N 40°28' W 073°40'34 8.6
2015-Feb-16 04:31N 40°30' W 072°55'6 6.1
2015-Feb-16 03:32N 40°31' W 072°47'8 8.1
2015-Feb-16 02:33N 40°31' W 072°37'8 7.6
2015-Feb-16 01:33N 40°32' W 072°27'5 5.2
2015-Feb-16 00:33N 40°31' W 072°20'9 8.8
2015-Feb-15 23:34N 40°31' W 072°09'7 7.1
2015-Feb-15 22:33N 40°31' W 071°59'10 9.8
2015-Feb-15 21:33N 40°32' W 071°46'9 9.1
2015-Feb-15 20:33N 40°32' W 071°34'8 8.0
2015-Feb-15 19:33N 40°32' W 071°24'8 7.7
2015-Feb-15 18:33N 40°32' W 071°14'7 7.3
2015-Feb-15 17:33N 40°31' W 071°04'  
Track history (hours):
 
Tides and Currents Weather Stations Pressure Air Temp Water Temp Dewpoint Dewpoint Depression Visibility Wind Speed Wind Dir Waves Ship Positions

Fesco Vladimir

Last reported at 2015-Feb-25 15:33 UTC. Time now 2015-Mar-07 00:12 UTC.
Position N 40°24' W 071°19'.
Warning: this ship's position is 9 days out of date.

Length 184 m; draft 9.5 m.

Type: Cargo ship. MMSI: 209777000.

Date/timePositionNaut miles runAvg speedWind from/ knotsBaromVisibWave heightAir tempDewpointWater temp
2015-Feb-25 15:33N 40°24' W 071°19'1414.5
2015-Feb-25 14:33N 40°23' W 071°38'1414.5
2015-Feb-25 13:33N 40°23' W 071°57'1414.5
2015-Feb-25 12:33N 40°22' W 072°15'1514.6
2015-Feb-25 11:33N 40°22' W 072°35'1514.8
2015-Feb-25 10:33N 40°22' W 072°54'1514.9
2015-Feb-25 09:33N 40°22' W 073°14'1515.1
2015-Feb-25 08:33N 40°25' W 073°33'1413.8
2015-Feb-25 07:33N 40°27' W 073°51'1212.0
2015-Feb-25 06:32N 40°36' W 074°03'6 6.0
2015-Feb-25 05:33N 40°39' W 074°09'2 1.6
2015-Feb-25 04:23N 40°41' W 074°09'0 0.0
2015-Feb-25 03:29N 40°41' W 074°09'0 0.0
2015-Feb-25 02:29N 40°41' W 074°09'0 0.0
2015-Feb-25 01:29N 40°41' W 074°09'0 0.0
2015-Feb-25 00:29N 40°41' W 074°09'0 0.0
2015-Feb-24 23:29N 40°41' W 074°09'0 0.0
2015-Feb-24 22:29N 40°41' W 074°09'0 0.0
2015-Feb-24 21:23N 40°41' W 074°09'0 0.0
2015-Feb-24 20:29N 40°41' W 074°09'0 0.0
2015-Feb-24 19:29N 40°41' W 074°09'0 0.0
2015-Feb-24 18:05N 40°41' W 074°09'0 0.0
2015-Feb-24 17:29N 40°41' W 074°09'1 1.4
2015-Feb-24 16:33N 40°40' W 074°08'5 5.3
2015-Feb-24 15:33N 40°37' W 074°03'1212.1
2015-Feb-24 14:33N 40°28' W 073°52'1211.5
2015-Feb-24 13:33N 40°17' W 073°46'3416.9
2015-Feb-24 11:31N 39°43' W 073°42'  
2015-Feb-22 03:14N 31°58' W 080°31'812.3
2015-Feb-22 02:34N 31°57' W 080°41'1111.4
2015-Feb-22 01:34N 32°02' W 080°53'9 8.7
2015-Feb-22 00:34N 32°05' W 081°03'5 5.2
2015-Feb-21 23:32N 32°07' W 081°08'0 0.0
2015-Feb-21 22:32N 32°07' W 081°08'0 0.0
2015-Feb-21 21:32N 32°07' W 081°08'0 0.0
2015-Feb-21 20:32N 32°07' W 081°08'0 0.0
2015-Feb-21 19:32N 32°07' W 081°08'0 0.0
2015-Feb-21 18:32N 32°07' W 081°08'0 0.0
2015-Feb-21 17:32N 32°07' W 081°08'0 0.0
2015-Feb-21 16:32N 32°07' W 081°08'0 0.0
2015-Feb-21 15:32N 32°07' W 081°08'0 0.0
2015-Feb-21 14:32N 32°07' W 081°08'0 0.0
2015-Feb-21 13:32N 32°07' W 081°08'0 0.0
2015-Feb-21 12:32N 32°07' W 081°08'0 0.0
2015-Feb-21 11:32N 32°07' W 081°08'0 0.2
2015-Feb-21 10:33N 32°08' W 081°08'3 3.5
2015-Feb-21 09:33N 32°05' W 081°05'8 7.6
2015-Feb-21 08:33N 32°04' W 080°57'1110.6
2015-Feb-21 07:34N 31°59' W 080°45'10 9.8
2015-Feb-21 06:33N 31°57' W 080°34'7 7.2
2015-Feb-21 05:33N 31°56' W 080°26'7 6.5
2015-Feb-21 04:30N 31°58' W 080°18'8 7.4
2015-Feb-21 03:23N 32°02' W 080°10'24010.8
2015-Feb-20 05:14N 34°20' W 076°15'  
2015-Feb-17 17:33N 39°37' W 073°52'1515.3
2015-Feb-17 16:33N 39°53' W 073°51'3414.5
2015-Feb-17 14:11N 40°27' W 073°51'711.0
2015-Feb-17 13:34N 40°31' W 073°59'1010.2
2015-Feb-17 12:33N 40°39' W 074°07'3 2.9
2015-Feb-17 11:32N 40°41' W 074°09'0 0.0
2015-Feb-17 10:32N 40°41' W 074°09'0 0.0
2015-Feb-17 09:32N 40°41' W 074°09'0 0.0
2015-Feb-17 08:32N 40°41' W 074°09'0 0.0
2015-Feb-17 07:32N 40°41' W 074°09'0 0.0
2015-Feb-17 06:32N 40°41' W 074°09'0 0.0
2015-Feb-17 05:26N 40°41' W 074°09'0 0.0
2015-Feb-17 04:32N 40°41' W 074°09'0 0.0
2015-Feb-17 03:32N 40°41' W 074°09'0 0.0
2015-Feb-17 02:32N 40°41' W 074°09'0 0.0
2015-Feb-17 01:26N 40°41' W 074°09'0 0.0
2015-Feb-17 00:32N 40°41' W 074°09'0 0.0
2015-Feb-16 23:14N 40°41' W 074°09'0 0.0
2015-Feb-16 22:26N 40°41' W 074°09'0 0.0
2015-Feb-16 21:32N 40°41' W 074°09'0 0.0
2015-Feb-16 20:32N 40°41' W 074°09'0 0.0
2015-Feb-16 19:32N 40°41' W 074°09'0 0.0
2015-Feb-16 18:32N 40°41' W 074°09'0 0.0
2015-Feb-16 17:32N 40°41' W 074°09'0 0.0
2015-Feb-16 16:32N 40°41' W 074°09'0 0.0
2015-Feb-16 15:32N 40°41' W 074°09'0 0.0
2015-Feb-16 14:32N 40°41' W 074°09'0 0.0
2015-Feb-16 13:32N 40°41' W 074°09'0 0.0
2015-Feb-16 12:33N 40°41' W 074°09'3 2.9
2015-Feb-16 11:33N 40°39' W 074°08'6 6.3
2015-Feb-16 10:33N 40°34' W 074°02'1110.6
2015-Feb-16 09:33N 40°28' W 073°50'8 7.6
2015-Feb-16 08:32N 40°28' W 073°40'34 8.6
2015-Feb-16 04:31N 40°30' W 072°55'6 6.1
2015-Feb-16 03:32N 40°31' W 072°47'8 8.1
2015-Feb-16 02:33N 40°31' W 072°37'8 7.6
2015-Feb-16 01:33N 40°32' W 072°27'5 5.2
2015-Feb-16 00:33N 40°31' W 072°20'9 8.8
2015-Feb-15 23:34N 40°31' W 072°09'7 7.1
2015-Feb-15 22:33N 40°31' W 071°59'10 9.8
2015-Feb-15 21:33N 40°32' W 071°46'9 9.1
2015-Feb-15 20:33N 40°32' W 071°34'8 8.0
2015-Feb-15 19:33N 40°32' W 071°24'8 7.7
2015-Feb-15 18:33N 40°32' W 071°14'7 7.3
2015-Feb-15 17:33N 40°31' W 071°04'  

Dump ship's entire track history